sensor_id;sensor_type;location;lat;lon;timestamp;P1;durP1;ratioP1;P2;durP2;ratioP2
43070;SDS011;36278;47.952;21.714;2024-02-15T00:00:39;94.23;;;54.27;;
43070;SDS011;36278;47.952;21.714;2024-02-15T00:03:05;92.70;;;54.03;;
43070;SDS011;36278;47.952;21.714;2024-02-15T00:05:33;95.10;;;52.40;;
43070;SDS011;36278;47.952;21.714;2024-02-15T00:08:01;89.03;;;53.27;;
43070;SDS011;36278;47.952;21.714;2024-02-15T00:10:27;84.97;;;51.40;;
43070;SDS011;36278;47.952;21.714;2024-02-15T00:12:53;92.33;;;53.27;;
43070;SDS011;36278;47.952;21.714;2024-02-15T00:15:18;92.70;;;53.57;;
43070;SDS011;36278;47.952;21.714;2024-02-15T00:17:44;91.60;;;50.73;;
43070;SDS011;36278;47.952;21.714;2024-02-15T00:20:11;84.10;;;51.60;;
43070;SDS011;36278;47.952;21.714;2024-02-15T00:22:38;90.17;;;52.60;;
43070;SDS011;36278;47.952;21.714;2024-02-15T00:25:06;90.13;;;51.67;;
43070;SDS011;36278;47.952;21.714;2024-02-15T00:27:33;82.43;;;50.00;;
43070;SDS011;36278;47.952;21.714;2024-02-15T00:30:00;85.73;;;52.37;;
43070;SDS011;36278;47.952;21.714;2024-02-15T00:32:26;86.50;;;50.97;;
43070;SDS011;36278;47.952;21.714;2024-02-15T00:34:51;92.93;;;53.53;;
43070;SDS011;36278;47.952;21.714;2024-02-15T00:37:17;91.40;;;52.40;;
43070;SDS011;36278;47.952;21.714;2024-02-15T00:39:42;86.67;;;50.87;;
43070;SDS011;36278;47.952;21.714;2024-02-15T00:42:08;93.33;;;52.83;;
43070;SDS011;36278;47.952;21.714;2024-02-15T00:44:34;91.43;;;51.97;;
43070;SDS011;36278;47.952;21.714;2024-02-15T00:47:00;85.93;;;52.37;;
43070;SDS011;36278;47.952;21.714;2024-02-15T00:49:25;94.40;;;53.40;;
43070;SDS011;36278;47.952;21.714;2024-02-15T00:51:53;91.47;;;51.87;;
43070;SDS011;36278;47.952;21.714;2024-02-15T00:54:18;85.67;;;50.80;;
43070;SDS011;36278;47.952;21.714;2024-02-15T00:56:44;90.10;;;51.27;;
43070;SDS011;36278;47.952;21.714;2024-02-15T00:59:09;90.43;;;52.27;;
43070;SDS011;36278;47.952;21.714;2024-02-15T01:01:36;86.43;;;50.73;;
43070;SDS011;36278;47.952;21.714;2024-02-15T01:04:05;90.50;;;49.93;;
43070;SDS011;36278;47.952;21.714;2024-02-15T01:06:31;82.23;;;49.60;;
43070;SDS011;36278;47.952;21.714;2024-02-15T01:08:57;84.87;;;49.47;;
43070;SDS011;36278;47.952;21.714;2024-02-15T01:11:23;88.33;;;49.67;;
43070;SDS011;36278;47.952;21.714;2024-02-15T01:13:49;85.13;;;51.77;;
43070;SDS011;36278;47.952;21.714;2024-02-15T01:16:16;83.40;;;50.37;;
43070;SDS011;36278;47.952;21.714;2024-02-15T01:18:41;88.20;;;50.10;;
43070;SDS011;36278;47.952;21.714;2024-02-15T01:21:06;81.00;;;49.73;;
43070;SDS011;36278;47.952;21.714;2024-02-15T01:23:32;83.70;;;50.57;;
43070;SDS011;36278;47.952;21.714;2024-02-15T01:25:59;82.73;;;49.80;;
43070;SDS011;36278;47.952;21.714;2024-02-15T01:28:26;84.23;;;49.50;;
43070;SDS011;36278;47.952;21.714;2024-02-15T01:30:51;82.77;;;49.70;;
43070;SDS011;36278;47.952;21.714;2024-02-15T01:33:17;80.13;;;48.27;;
43070;SDS011;36278;47.952;21.714;2024-02-15T01:35:43;82.20;;;49.00;;
43070;SDS011;36278;47.952;21.714;2024-02-15T01:38:08;79.13;;;48.27;;
43070;SDS011;36278;47.952;21.714;2024-02-15T01:40:33;83.37;;;47.37;;
43070;SDS011;36278;47.952;21.714;2024-02-15T01:43:00;78.93;;;47.17;;
43070;SDS011;36278;47.952;21.714;2024-02-15T01:45:25;75.43;;;46.17;;
43070;SDS011;36278;47.952;21.714;2024-02-15T01:47:52;74.20;;;45.67;;
43070;SDS011;36278;47.952;21.714;2024-02-15T01:50:18;69.90;;;45.70;;
43070;SDS011;36278;47.952;21.714;2024-02-15T01:52:45;72.07;;;46.30;;
43070;SDS011;36278;47.952;21.714;2024-02-15T01:55:13;77.13;;;45.63;;
43070;SDS011;36278;47.952;21.714;2024-02-15T01:57:40;78.73;;;45.30;;
43070;SDS011;36278;47.952;21.714;2024-02-15T02:00:14;70.47;;;43.88;;
43070;SDS011;36278;47.952;21.714;2024-02-15T02:02:42;74.30;;;45.13;;
43070;SDS011;36278;47.952;21.714;2024-02-15T02:05:09;77.57;;;44.00;;
43070;SDS011;36278;47.952;21.714;2024-02-15T02:07:35;77.27;;;44.37;;
43070;SDS011;36278;47.952;21.714;2024-02-15T02:10:02;69.70;;;44.20;;
43070;SDS011;36278;47.952;21.714;2024-02-15T02:12:28;75.03;;;45.43;;
43070;SDS011;36278;47.952;21.714;2024-02-15T02:14:53;70.57;;;42.50;;
43070;SDS011;36278;47.952;21.714;2024-02-15T02:17:19;78.87;;;45.50;;
43070;SDS011;36278;47.952;21.714;2024-02-15T02:19:46;71.73;;;42.13;;
43070;SDS011;36278;47.952;21.714;2024-02-15T02:22:14;71.37;;;43.17;;
43070;SDS011;36278;47.952;21.714;2024-02-15T02:24:52;72.40;;;43.13;;
43070;SDS011;36278;47.952;21.714;2024-02-15T02:27:31;78.40;;;45.03;;
43070;SDS011;36278;47.952;21.714;2024-02-15T02:29:57;65.67;;;42.37;;
43070;SDS011;36278;47.952;21.714;2024-02-15T02:32:24;72.33;;;43.33;;
43070;SDS011;36278;47.952;21.714;2024-02-15T02:34:51;72.17;;;43.60;;
43070;SDS011;36278;47.952;21.714;2024-02-15T02:37:22;74.37;;;44.27;;
43070;SDS011;36278;47.952;21.714;2024-02-15T02:39:50;71.20;;;42.17;;
43070;SDS011;36278;47.952;21.714;2024-02-15T02:42:16;72.33;;;44.53;;
43070;SDS011;36278;47.952;21.714;2024-02-15T02:44:41;75.47;;;45.00;;
43070;SDS011;36278;47.952;21.714;2024-02-15T02:47:07;71.27;;;45.23;;
43070;SDS011;36278;47.952;21.714;2024-02-15T02:49:32;79.53;;;46.60;;
43070;SDS011;36278;47.952;21.714;2024-02-15T02:52:00;69.13;;;42.67;;
43070;SDS011;36278;47.952;21.714;2024-02-15T02:54:26;72.73;;;43.10;;
43070;SDS011;36278;47.952;21.714;2024-02-15T02:56:51;69.60;;;42.97;;
43070;SDS011;36278;47.952;21.714;2024-02-15T02:59:17;75.40;;;44.83;;
43070;SDS011;36278;47.952;21.714;2024-02-15T03:01:42;79.40;;;44.93;;
43070;SDS011;36278;47.952;21.714;2024-02-15T03:04:07;75.03;;;44.73;;
43070;SDS011;36278;47.952;21.714;2024-02-15T03:06:33;73.97;;;45.50;;
43070;SDS011;36278;47.952;21.714;2024-02-15T03:09:00;81.47;;;46.10;;
43070;SDS011;36278;47.952;21.714;2024-02-15T03:11:26;74.70;;;44.40;;
43070;SDS011;36278;47.952;21.714;2024-02-15T03:13:52;79.57;;;44.97;;
43070;SDS011;36278;47.952;21.714;2024-02-15T03:16:21;76.93;;;45.27;;
43070;SDS011;36278;47.952;21.714;2024-02-15T03:18:47;80.33;;;48.43;;
43070;SDS011;36278;47.952;21.714;2024-02-15T03:21:13;76.40;;;47.83;;
43070;SDS011;36278;47.952;21.714;2024-02-15T03:23:40;80.70;;;47.07;;
43070;SDS011;36278;47.952;21.714;2024-02-15T03:26:07;79.73;;;48.63;;
43070;SDS011;36278;47.952;21.714;2024-02-15T03:28:33;79.40;;;48.50;;
43070;SDS011;36278;47.952;21.714;2024-02-15T03:31:02;81.83;;;48.77;;
43070;SDS011;36278;47.952;21.714;2024-02-15T03:33:27;84.83;;;51.27;;
43070;SDS011;36278;47.952;21.714;2024-02-15T03:35:57;84.30;;;51.47;;
43070;SDS011;36278;47.952;21.714;2024-02-15T03:38:25;78.60;;;50.00;;
43070;SDS011;36278;47.952;21.714;2024-02-15T03:40:52;84.70;;;51.67;;
43070;SDS011;36278;47.952;21.714;2024-02-15T03:43:17;81.47;;;47.70;;
43070;SDS011;36278;47.952;21.714;2024-02-15T03:45:43;79.70;;;51.37;;
43070;SDS011;36278;47.952;21.714;2024-02-15T03:48:09;83.20;;;51.20;;
43070;SDS011;36278;47.952;21.714;2024-02-15T03:50:35;80.67;;;49.53;;
43070;SDS011;36278;47.952;21.714;2024-02-15T03:53:00;81.10;;;49.13;;
43070;SDS011;36278;47.952;21.714;2024-02-15T03:55:26;79.67;;;48.30;;
43070;SDS011;36278;47.952;21.714;2024-02-15T03:57:51;70.77;;;45.93;;
43070;SDS011;36278;47.952;21.714;2024-02-15T04:00:18;71.83;;;46.67;;
43070;SDS011;36278;47.952;21.714;2024-02-15T04:02:46;72.03;;;44.67;;
43070;SDS011;36278;47.952;21.714;2024-02-15T04:05:13;70.07;;;44.43;;
43070;SDS011;36278;47.952;21.714;2024-02-15T04:07:39;78.70;;;45.13;;
43070;SDS011;36278;47.952;21.714;2024-02-15T04:10:05;66.80;;;43.20;;
43070;SDS011;36278;47.952;21.714;2024-02-15T04:12:32;73.40;;;43.40;;
43070;SDS011;36278;47.952;21.714;2024-02-15T04:14:58;68.33;;;43.73;;
43070;SDS011;36278;47.952;21.714;2024-02-15T04:17:30;66.97;;;43.53;;
43070;SDS011;36278;47.952;21.714;2024-02-15T04:19:58;67.77;;;42.57;;
43070;SDS011;36278;47.952;21.714;2024-02-15T04:22:23;72.50;;;43.00;;
43070;SDS011;36278;47.952;21.714;2024-02-15T04:24:49;74.03;;;44.57;;
43070;SDS011;36278;47.952;21.714;2024-02-15T04:27:14;69.77;;;43.27;;
43070;SDS011;36278;47.952;21.714;2024-02-15T04:29:41;74.53;;;44.63;;
43070;SDS011;36278;47.952;21.714;2024-02-15T04:32:09;65.70;;;42.73;;
43070;SDS011;36278;47.952;21.714;2024-02-15T04:34:36;75.13;;;42.53;;
43070;SDS011;36278;47.952;21.714;2024-02-15T04:37:02;65.87;;;42.20;;
43070;SDS011;36278;47.952;21.714;2024-02-15T04:39:38;71.03;;;42.83;;
43070;SDS011;36278;47.952;21.714;2024-02-15T04:42:04;63.00;;;40.73;;
43070;SDS011;36278;47.952;21.714;2024-02-15T04:44:39;65.00;;;40.33;;
43070;SDS011;36278;47.952;21.714;2024-02-15T04:47:05;63.30;;;39.27;;
43070;SDS011;36278;47.952;21.714;2024-02-15T04:49:31;62.97;;;39.07;;
43070;SDS011;36278;47.952;21.714;2024-02-15T04:51:57;64.63;;;40.07;;
43070;SDS011;36278;47.952;21.714;2024-02-15T04:54:23;61.37;;;39.07;;
43070;SDS011;36278;47.952;21.714;2024-02-15T04:56:49;63.83;;;39.67;;
43070;SDS011;36278;47.952;21.714;2024-02-15T04:59:19;61.47;;;39.10;;
43070;SDS011;36278;47.952;21.714;2024-02-15T05:01:46;57.63;;;38.37;;
43070;SDS011;36278;47.952;21.714;2024-02-15T05:04:14;61.00;;;39.73;;
43070;SDS011;36278;47.952;21.714;2024-02-15T05:06:40;57.10;;;37.37;;
43070;SDS011;36278;47.952;21.714;2024-02-15T05:09:06;62.97;;;37.53;;
43070;SDS011;36278;47.952;21.714;2024-02-15T05:11:39;55.03;;;36.83;;
43070;SDS011;36278;47.952;21.714;2024-02-15T05:14:11;57.53;;;37.77;;
43070;SDS011;36278;47.952;21.714;2024-02-15T05:16:37;59.57;;;36.70;;
43070;SDS011;36278;47.952;21.714;2024-02-15T05:19:11;62.90;;;37.63;;
43070;SDS011;36278;47.952;21.714;2024-02-15T05:21:37;59.90;;;36.73;;
43070;SDS011;36278;47.952;21.714;2024-02-15T05:24:03;58.90;;;37.93;;
43070;SDS011;36278;47.952;21.714;2024-02-15T05:26:29;56.17;;;35.40;;
43070;SDS011;36278;47.952;21.714;2024-02-15T05:28:55;59.10;;;35.33;;
43070;SDS011;36278;47.952;21.714;2024-02-15T05:31:20;56.90;;;35.97;;
43070;SDS011;36278;47.952;21.714;2024-02-15T05:33:50;58.80;;;36.57;;
43070;SDS011;36278;47.952;21.714;2024-02-15T05:36:16;69.53;;;37.37;;
43070;SDS011;36278;47.952;21.714;2024-02-15T05:38:49;59.53;;;36.50;;
43070;SDS011;36278;47.952;21.714;2024-02-15T05:41:16;56.87;;;34.73;;
43070;SDS011;36278;47.952;21.714;2024-02-15T05:43:42;55.07;;;35.37;;
43070;SDS011;36278;47.952;21.714;2024-02-15T05:46:08;58.90;;;35.43;;
43070;SDS011;36278;47.952;21.714;2024-02-15T05:48:34;56.37;;;35.43;;
43070;SDS011;36278;47.952;21.714;2024-02-15T05:51:01;61.73;;;36.33;;
43070;SDS011;36278;47.952;21.714;2024-02-15T05:53:27;59.03;;;35.83;;
43070;SDS011;36278;47.952;21.714;2024-02-15T05:55:52;55.03;;;34.67;;
43070;SDS011;36278;47.952;21.714;2024-02-15T05:58:18;57.30;;;35.70;;
43070;SDS011;36278;47.952;21.714;2024-02-15T06:00:43;60.50;;;36.83;;
43070;SDS011;36278;47.952;21.714;2024-02-15T06:03:17;57.00;;;36.50;;
43070;SDS011;36278;47.952;21.714;2024-02-15T06:05:43;64.23;;;39.23;;
43070;SDS011;36278;47.952;21.714;2024-02-15T06:08:10;77.17;;;44.60;;
43070;SDS011;36278;47.952;21.714;2024-02-15T06:10:39;75.03;;;47.63;;
43070;SDS011;36278;47.952;21.714;2024-02-15T06:13:05;83.57;;;52.13;;
43070;SDS011;36278;47.952;21.714;2024-02-15T06:15:33;79.63;;;47.63;;
43070;SDS011;36278;47.952;21.714;2024-02-15T06:17:59;73.27;;;45.00;;
43070;SDS011;36278;47.952;21.714;2024-02-15T06:20:25;76.90;;;45.43;;
43070;SDS011;36278;47.952;21.714;2024-02-15T06:22:53;71.80;;;45.53;;
43070;SDS011;36278;47.952;21.714;2024-02-15T06:25:19;75.30;;;46.13;;
43070;SDS011;36278;47.952;21.714;2024-02-15T06:27:46;80.77;;;47.00;;
43070;SDS011;36278;47.952;21.714;2024-02-15T06:30:12;73.00;;;47.03;;
43070;SDS011;36278;47.952;21.714;2024-02-15T06:32:56;72.90;;;47.83;;
43070;SDS011;36278;47.952;21.714;2024-02-15T06:35:41;81.03;;;49.47;;
43070;SDS011;36278;47.952;21.714;2024-02-15T06:38:25;80.90;;;49.90;;
43070;SDS011;36278;47.952;21.714;2024-02-15T06:41:09;84.33;;;50.47;;
43070;SDS011;36278;47.952;21.714;2024-02-15T06:43:35;87.90;;;53.60;;
43070;SDS011;36278;47.952;21.714;2024-02-15T06:46:01;83.60;;;53.67;;
43070;SDS011;36278;47.952;21.714;2024-02-15T06:48:28;75.87;;;49.23;;
43070;SDS011;36278;47.952;21.714;2024-02-15T06:50:53;83.27;;;50.23;;
43070;SDS011;36278;47.952;21.714;2024-02-15T06:53:19;79.23;;;50.60;;
43070;SDS011;36278;47.952;21.714;2024-02-15T06:55:48;89.97;;;51.73;;
43070;SDS011;36278;47.952;21.714;2024-02-15T06:58:17;80.23;;;50.07;;
43070;SDS011;36278;47.952;21.714;2024-02-15T07:00:43;70.53;;;45.43;;
43070;SDS011;36278;47.952;21.714;2024-02-15T07:03:09;68.47;;;43.87;;
43070;SDS011;36278;47.952;21.714;2024-02-15T07:05:36;76.63;;;43.33;;
43070;SDS011;36278;47.952;21.714;2024-02-15T07:08:04;69.20;;;41.80;;
43070;SDS011;36278;47.952;21.714;2024-02-15T07:10:33;68.53;;;42.77;;
43070;SDS011;36278;47.952;21.714;2024-02-15T07:12:58;64.87;;;40.53;;
43070;SDS011;36278;47.952;21.714;2024-02-15T07:15:24;61.87;;;39.00;;
43070;SDS011;36278;47.952;21.714;2024-02-15T07:17:49;62.53;;;39.63;;
43070;SDS011;36278;47.952;21.714;2024-02-15T07:20:19;67.90;;;40.40;;
43070;SDS011;36278;47.952;21.714;2024-02-15T07:22:47;66.93;;;41.27;;
43070;SDS011;36278;47.952;21.714;2024-02-15T07:25:12;60.63;;;39.03;;
43070;SDS011;36278;47.952;21.714;2024-02-15T07:27:39;59.90;;;38.00;;
43070;SDS011;36278;47.952;21.714;2024-02-15T07:30:05;51.77;;;33.40;;
43070;SDS011;36278;47.952;21.714;2024-02-15T07:32:33;46.50;;;31.60;;
43070;SDS011;36278;47.952;21.714;2024-02-15T07:35:00;52.03;;;30.33;;
43070;SDS011;36278;47.952;21.714;2024-02-15T07:37:26;43.40;;;28.50;;
43070;SDS011;36278;47.952;21.714;2024-02-15T07:39:52;43.20;;;29.13;;
43070;SDS011;36278;47.952;21.714;2024-02-15T07:42:17;39.83;;;25.73;;
43070;SDS011;36278;47.952;21.714;2024-02-15T07:44:43;34.73;;;24.13;;
43070;SDS011;36278;47.952;21.714;2024-02-15T07:47:09;34.97;;;25.10;;
43070;SDS011;36278;47.952;21.714;2024-02-15T07:49:35;35.13;;;24.87;;
43070;SDS011;36278;47.952;21.714;2024-02-15T07:52:02;36.83;;;25.10;;
43070;SDS011;36278;47.952;21.714;2024-02-15T07:54:29;34.73;;;24.37;;
43070;SDS011;36278;47.952;21.714;2024-02-15T07:56:56;35.83;;;23.47;;
43070;SDS011;36278;47.952;21.714;2024-02-15T07:59:22;36.97;;;24.97;;
43070;SDS011;36278;47.952;21.714;2024-02-15T08:01:48;33.63;;;24.67;;
43070;SDS011;36278;47.952;21.714;2024-02-15T08:04:18;31.17;;;20.27;;
43070;SDS011;36278;47.952;21.714;2024-02-15T08:06:45;31.07;;;20.70;;
43070;SDS011;36278;47.952;21.714;2024-02-15T08:09:14;25.10;;;18.87;;
43070;SDS011;36278;47.952;21.714;2024-02-15T08:11:43;27.37;;;18.80;;
43070;SDS011;36278;47.952;21.714;2024-02-15T08:14:09;26.80;;;15.10;;
43070;SDS011;36278;47.952;21.714;2024-02-15T08:16:36;17.77;;;13.43;;
43070;SDS011;36278;47.952;21.714;2024-02-15T08:19:05;25.07;;;16.10;;
43070;SDS011;36278;47.952;21.714;2024-02-15T08:21:32;21.10;;;15.27;;
43070;SDS011;36278;47.952;21.714;2024-02-15T08:24:02;28.00;;;16.20;;
43070;SDS011;36278;47.952;21.714;2024-02-15T08:26:37;24.02;;;15.48;;
43070;SDS011;36278;47.952;21.714;2024-02-15T08:29:04;18.95;;;14.70;;
43070;SDS011;36278;47.952;21.714;2024-02-15T08:31:34;20.90;;;15.63;;
43070;SDS011;36278;47.952;21.714;2024-02-15T08:34:01;27.33;;;18.33;;
43070;SDS011;36278;47.952;21.714;2024-02-15T08:36:35;27.73;;;19.10;;
43070;SDS011;36278;47.952;21.714;2024-02-15T08:39:02;28.63;;;19.70;;
43070;SDS011;36278;47.952;21.714;2024-02-15T08:41:29;27.03;;;19.27;;
43070;SDS011;36278;47.952;21.714;2024-02-15T08:43:54;25.07;;;18.80;;
43070;SDS011;36278;47.952;21.714;2024-02-15T08:46:23;25.20;;;18.53;;
43070;SDS011;36278;47.952;21.714;2024-02-15T08:48:50;24.63;;;16.60;;
43070;SDS011;36278;47.952;21.714;2024-02-15T08:51:17;23.00;;;17.40;;
43070;SDS011;36278;47.952;21.714;2024-02-15T08:53:43;25.03;;;18.20;;
43070;SDS011;36278;47.952;21.714;2024-02-15T08:56:09;26.87;;;17.83;;
43070;SDS011;36278;47.952;21.714;2024-02-15T08:58:35;22.60;;;15.40;;
43070;SDS011;36278;47.952;21.714;2024-02-15T09:01:00;19.67;;;13.63;;
43070;SDS011;36278;47.952;21.714;2024-02-15T09:03:28;21.33;;;15.00;;
43070;SDS011;36278;47.952;21.714;2024-02-15T09:05:53;19.10;;;13.43;;
43070;SDS011;36278;47.952;21.714;2024-02-15T09:08:19;17.90;;;13.17;;
43070;SDS011;36278;47.952;21.714;2024-02-15T09:10:49;19.93;;;15.80;;
43070;SDS011;36278;47.952;21.714;2024-02-15T09:13:15;21.30;;;17.33;;
43070;SDS011;36278;47.952;21.714;2024-02-15T09:15:41;20.53;;;15.50;;
43070;SDS011;36278;47.952;21.714;2024-02-15T09:18:07;20.33;;;15.37;;
43070;SDS011;36278;47.952;21.714;2024-02-15T09:20:35;25.00;;;16.90;;
43070;SDS011;36278;47.952;21.714;2024-02-15T09:23:02;24.20;;;16.87;;
43070;SDS011;36278;47.952;21.714;2024-02-15T09:25:34;30.07;;;17.90;;
43070;SDS011;36278;47.952;21.714;2024-02-15T09:28:03;23.10;;;17.37;;
43070;SDS011;36278;47.952;21.714;2024-02-15T09:30:29;24.73;;;16.67;;
43070;SDS011;36278;47.952;21.714;2024-02-15T09:32:56;24.30;;;18.37;;
43070;SDS011;36278;47.952;21.714;2024-02-15T09:35:23;21.13;;;15.63;;
43070;SDS011;36278;47.952;21.714;2024-02-15T09:37:48;22.53;;;16.23;;
43070;SDS011;36278;47.952;21.714;2024-02-15T09:40:15;21.70;;;15.87;;
43070;SDS011;36278;47.952;21.714;2024-02-15T09:42:43;24.10;;;16.33;;
43070;SDS011;36278;47.952;21.714;2024-02-15T09:45:10;20.13;;;14.90;;
43070;SDS011;36278;47.952;21.714;2024-02-15T09:47:41;25.37;;;18.20;;
43070;SDS011;36278;47.952;21.714;2024-02-15T09:50:14;21.17;;;16.23;;
43070;SDS011;36278;47.952;21.714;2024-02-15T09:52:43;27.17;;;17.63;;
43070;SDS011;36278;47.952;21.714;2024-02-15T09:55:11;24.27;;;17.20;;
43070;SDS011;36278;47.952;21.714;2024-02-15T09:57:38;24.07;;;17.20;;
43070;SDS011;36278;47.952;21.714;2024-02-15T10:00:04;22.17;;;17.27;;
43070;SDS011;36278;47.952;21.714;2024-02-15T10:02:36;23.50;;;16.63;;
43070;SDS011;36278;47.952;21.714;2024-02-15T10:05:05;21.50;;;16.37;;
43070;SDS011;36278;47.952;21.714;2024-02-15T10:07:31;23.37;;;15.73;;
43070;SDS011;36278;47.952;21.714;2024-02-15T10:09:57;20.80;;;15.43;;
43070;SDS011;36278;47.952;21.714;2024-02-15T10:12:41;20.90;;;15.50;;
43070;SDS011;36278;47.952;21.714;2024-02-15T10:15:08;19.83;;;15.50;;
43070;SDS011;36278;47.952;21.714;2024-02-15T10:17:35;20.67;;;15.53;;
43070;SDS011;36278;47.952;21.714;2024-02-15T10:20:05;21.70;;;15.60;;
43070;SDS011;36278;47.952;21.714;2024-02-15T10:22:32;19.90;;;15.10;;
43070;SDS011;36278;47.952;21.714;2024-02-15T10:25:13;23.87;;;16.07;;
43070;SDS011;36278;47.952;21.714;2024-02-15T10:27:40;20.00;;;15.23;;
43070;SDS011;36278;47.952;21.714;2024-02-15T10:30:16;23.67;;;15.47;;
43070;SDS011;36278;47.952;21.714;2024-02-15T10:32:44;20.50;;;14.57;;
43070;SDS011;36278;47.952;21.714;2024-02-15T10:35:10;21.17;;;15.73;;
43070;SDS011;36278;47.952;21.714;2024-02-15T10:40:09;21.27;;;15.40;;
43070;SDS011;36278;47.952;21.714;2024-02-15T10:42:40;21.07;;;15.47;;
43070;SDS011;36278;47.952;21.714;2024-02-15T10:45:08;22.37;;;15.30;;
43070;SDS011;36278;47.952;21.714;2024-02-15T10:47:39;22.67;;;15.53;;
43070;SDS011;36278;47.952;21.714;2024-02-15T10:50:06;21.17;;;16.13;;
43070;SDS011;36278;47.952;21.714;2024-02-15T10:52:32;22.60;;;16.40;;
43070;SDS011;36278;47.952;21.714;2024-02-15T10:55:03;23.27;;;15.70;;
43070;SDS011;36278;47.952;21.714;2024-02-15T10:57:33;21.43;;;15.80;;
43070;SDS011;36278;47.952;21.714;2024-02-15T11:00:06;18.73;;;15.53;;
43070;SDS011;36278;47.952;21.714;2024-02-15T11:02:42;22.77;;;15.23;;
43070;SDS011;36278;47.952;21.714;2024-02-15T11:05:16;20.53;;;16.03;;
43070;SDS011;36278;47.952;21.714;2024-02-15T11:07:46;21.90;;;14.87;;
43070;SDS011;36278;47.952;21.714;2024-02-15T11:10:12;20.57;;;15.23;;
43070;SDS011;36278;47.952;21.714;2024-02-15T11:12:42;19.00;;;14.77;;
43070;SDS011;36278;47.952;21.714;2024-02-15T11:15:09;21.20;;;14.53;;
43070;SDS011;36278;47.952;21.714;2024-02-15T11:20:50;19.07;;;13.87;;
43070;SDS011;36278;47.952;21.714;2024-02-15T11:22:58;18.70;;;14.30;;
43070;SDS011;36278;47.952;21.714;2024-02-15T11:25:31;19.83;;;13.93;;
43070;SDS011;36278;47.952;21.714;2024-02-15T11:30:52;21.33;;;14.63;;
43070;SDS011;36278;47.952;21.714;2024-02-15T11:33:28;19.97;;;14.30;;
43070;SDS011;36278;47.952;21.714;2024-02-15T11:36:06;17.70;;;13.25;;
43070;SDS011;36278;47.952;21.714;2024-02-15T11:38:36;24.33;;;13.83;;
43070;SDS011;36278;47.952;21.714;2024-02-15T11:41:06;21.60;;;13.90;;
43070;SDS011;36278;47.952;21.714;2024-02-15T11:46:14;16.90;;;13.20;;
43070;SDS011;36278;47.952;21.714;2024-02-15T11:51:32;17.97;;;14.10;;
43070;SDS011;36278;47.952;21.714;2024-02-15T11:54:03;20.17;;;14.27;;
43070;SDS011;36278;47.952;21.714;2024-02-15T11:59:30;18.43;;;13.87;;
43070;SDS011;36278;47.952;21.714;2024-02-15T12:02:08;17.57;;;13.53;;
43070;SDS011;36278;47.952;21.714;2024-02-15T12:04:52;17.77;;;13.30;;
43070;SDS011;36278;47.952;21.714;2024-02-15T12:07:37;19.43;;;13.93;;
43070;SDS011;36278;47.952;21.714;2024-02-15T12:10:21;21.47;;;12.53;;
43070;SDS011;36278;47.952;21.714;2024-02-15T12:13:06;17.37;;;11.87;;
43070;SDS011;36278;47.952;21.714;2024-02-15T12:15:57;16.10;;;11.57;;
43070;SDS011;36278;47.952;21.714;2024-02-15T12:18:42;16.70;;;12.53;;
43070;SDS011;36278;47.952;21.714;2024-02-15T12:21:10;19.17;;;13.20;;
43070;SDS011;36278;47.952;21.714;2024-02-15T12:23:40;16.33;;;12.30;;
43070;SDS011;36278;47.952;21.714;2024-02-15T12:26:07;14.10;;;11.63;;
43070;SDS011;36278;47.952;21.714;2024-02-15T12:28:33;15.07;;;10.50;;
43070;SDS011;36278;47.952;21.714;2024-02-15T12:31:01;11.93;;;9.83;;
43070;SDS011;36278;47.952;21.714;2024-02-15T12:33:28;12.77;;;10.60;;
43070;SDS011;36278;47.952;21.714;2024-02-15T12:36:05;13.17;;;10.67;;
43070;SDS011;36278;47.952;21.714;2024-02-15T12:38:31;12.97;;;10.37;;
43070;SDS011;36278;47.952;21.714;2024-02-15T12:40:59;16.50;;;10.47;;
43070;SDS011;36278;47.952;21.714;2024-02-15T12:43:27;15.17;;;11.30;;
43070;SDS011;36278;47.952;21.714;2024-02-15T12:45:53;15.00;;;11.20;;
43070;SDS011;36278;47.952;21.714;2024-02-15T12:48:21;12.70;;;10.60;;
43070;SDS011;36278;47.952;21.714;2024-02-15T12:50:47;12.27;;;10.60;;
43070;SDS011;36278;47.952;21.714;2024-02-15T12:53:13;13.67;;;11.33;;
43070;SDS011;36278;47.952;21.714;2024-02-15T12:55:52;14.97;;;11.03;;
43070;SDS011;36278;47.952;21.714;2024-02-15T12:58:20;14.70;;;11.13;;
43070;SDS011;36278;47.952;21.714;2024-02-15T13:00:45;16.33;;;10.17;;
43070;SDS011;36278;47.952;21.714;2024-02-15T13:03:11;14.50;;;11.03;;
43070;SDS011;36278;47.952;21.714;2024-02-15T13:05:39;13.47;;;10.03;;
43070;SDS011;36278;47.952;21.714;2024-02-15T13:08:04;12.90;;;9.77;;
43070;SDS011;36278;47.952;21.714;2024-02-15T13:10:34;13.50;;;9.90;;
43070;SDS011;36278;47.952;21.714;2024-02-15T13:13:00;16.57;;;10.07;;
43070;SDS011;36278;47.952;21.714;2024-02-15T13:15:26;15.70;;;12.27;;
43070;SDS011;36278;47.952;21.714;2024-02-15T13:17:55;13.50;;;10.03;;
43070;SDS011;36278;47.952;21.714;2024-02-15T13:20:21;16.43;;;10.37;;
43070;SDS011;36278;47.952;21.714;2024-02-15T13:23:04;14.40;;;11.63;;
43070;SDS011;36278;47.952;21.714;2024-02-15T13:25:34;14.00;;;10.13;;
43070;SDS011;36278;47.952;21.714;2024-02-15T13:28:02;14.07;;;11.20;;
43070;SDS011;36278;47.952;21.714;2024-02-15T13:30:29;15.03;;;11.10;;
43070;SDS011;36278;47.952;21.714;2024-02-15T13:32:55;16.60;;;11.80;;
43070;SDS011;36278;47.952;21.714;2024-02-15T13:35:21;17.43;;;10.57;;
43070;SDS011;36278;47.952;21.714;2024-02-15T13:37:55;14.87;;;12.77;;
43070;SDS011;36278;47.952;21.714;2024-02-15T13:40:23;18.73;;;11.87;;
43070;SDS011;36278;47.952;21.714;2024-02-15T13:42:53;13.03;;;10.17;;
43070;SDS011;36278;47.952;21.714;2024-02-15T13:45:30;14.83;;;11.47;;
43070;SDS011;36278;47.952;21.714;2024-02-15T13:48:00;13.83;;;10.00;;
43070;SDS011;36278;47.952;21.714;2024-02-15T13:50:28;14.40;;;10.23;;
43070;SDS011;36278;47.952;21.714;2024-02-15T13:52:55;11.83;;;10.30;;
43070;SDS011;36278;47.952;21.714;2024-02-15T13:55:20;12.63;;;9.33;;
43070;SDS011;36278;47.952;21.714;2024-02-15T13:57:47;12.80;;;9.57;;
43070;SDS011;36278;47.952;21.714;2024-02-15T14:00:16;12.13;;;10.03;;
43070;SDS011;36278;47.952;21.714;2024-02-15T14:02:52;13.47;;;9.33;;
43070;SDS011;36278;47.952;21.714;2024-02-15T14:05:18;10.53;;;8.73;;
43070;SDS011;36278;47.952;21.714;2024-02-15T14:07:48;12.83;;;9.60;;
43070;SDS011;36278;47.952;21.714;2024-02-15T14:10:15;13.37;;;9.53;;
43070;SDS011;36278;47.952;21.714;2024-02-15T14:12:43;12.90;;;9.70;;
43070;SDS011;36278;47.952;21.714;2024-02-15T14:15:10;15.60;;;10.33;;
43070;SDS011;36278;47.952;21.714;2024-02-15T14:17:36;12.53;;;10.17;;
43070;SDS011;36278;47.952;21.714;2024-02-15T14:20:02;16.57;;;12.80;;
43070;SDS011;36278;47.952;21.714;2024-02-15T14:22:33;17.67;;;10.97;;
43070;SDS011;36278;47.952;21.714;2024-02-15T14:25:00;17.03;;;13.50;;
43070;SDS011;36278;47.952;21.714;2024-02-15T14:27:25;12.73;;;10.07;;
43070;SDS011;36278;47.952;21.714;2024-02-15T14:29:51;21.33;;;14.32;;